sensor_id;sensor_type;location;lat;lon;timestamp;P1;durP1;ratioP1;P2;durP2;ratioP2
32106;SDS011;18622;51.998;10.440;2023-07-31T03:30:37;0.97;;;0.80;;
32106;SDS011;18622;51.998;10.440;2023-07-31T03:33:05;3.13;;;1.10;;
32106;SDS011;18622;51.998;10.440;2023-07-31T03:35:33;2.00;;;1.13;;
32106;SDS011;18622;51.998;10.440;2023-07-31T03:38:00;1.00;;;0.83;;
32106;SDS011;18622;51.998;10.440;2023-07-31T03:40:28;1.87;;;1.10;;
32106;SDS011;18622;51.998;10.440;2023-07-31T03:42:56;4.03;;;1.27;;
32106;SDS011;18622;51.998;10.440;2023-07-31T03:45:24;1.10;;;0.97;;
32106;SDS011;18622;51.998;10.440;2023-07-31T03:47:52;1.10;;;1.00;;
32106;SDS011;18622;51.998;10.440;2023-07-31T03:50:20;1.77;;;1.10;;
32106;SDS011;18622;51.998;10.440;2023-07-31T03:52:48;4.77;;;1.00;;
32106;SDS011;18622;51.998;10.440;2023-07-31T03:55:16;2.13;;;1.17;;
32106;SDS011;18622;51.998;10.440;2023-07-31T03:57:44;3.23;;;1.27;;
32106;SDS011;18622;51.998;10.440;2023-07-31T04:00:12;1.03;;;1.00;;
32106;SDS011;18622;51.998;10.440;2023-07-31T04:02:40;2.90;;;1.17;;
32106;SDS011;18622;51.998;10.440;2023-07-31T04:05:07;1.87;;;0.80;;
32106;SDS011;18622;51.998;10.440;2023-07-31T04:07:36;1.15;;;0.80;;
32106;SDS011;18622;51.998;10.440;2023-07-31T04:10:04;2.03;;;0.83;;
32106;SDS011;18622;51.998;10.440;2023-07-31T04:12:32;1.37;;;0.90;;
32106;SDS011;18622;51.998;10.440;2023-07-31T04:15:00;1.47;;;0.73;;
32106;SDS011;18622;51.998;10.440;2023-07-31T04:17:28;1.60;;;0.70;;
32106;SDS011;18622;51.998;10.440;2023-07-31T04:19:55;3.03;;;0.60;;
32106;SDS011;18622;51.998;10.440;2023-07-31T04:22:23;0.97;;;0.97;;
32106;SDS011;18622;51.998;10.440;2023-07-31T04:27:20;5.47;;;0.93;;
32106;SDS011;18622;51.998;10.440;2023-07-31T04:29:48;1.77;;;0.60;;
32106;SDS011;18622;51.998;10.440;2023-07-31T04:32:15;0.87;;;0.40;;
32106;SDS011;18622;51.998;10.440;2023-07-31T04:34:43;0.97;;;0.50;;
32106;SDS011;18622;51.998;10.440;2023-07-31T04:37:11;2.30;;;0.60;;
32106;SDS011;18622;51.998;10.440;2023-07-31T04:39:39;0.60;;;0.47;;
32106;SDS011;18622;51.998;10.440;2023-07-31T04:42:07;0.90;;;0.60;;
32106;SDS011;18622;51.998;10.440;2023-07-31T04:44:35;1.30;;;0.60;;
32106;SDS011;18622;51.998;10.440;2023-07-31T04:47:03;0.93;;;0.60;;
32106;SDS011;18622;51.998;10.440;2023-07-31T04:49:31;1.07;;;0.50;;
32106;SDS011;18622;51.998;10.440;2023-07-31T04:51:59;2.12;;;0.68;;
32106;SDS011;18622;51.998;10.440;2023-07-31T04:54:27;0.40;;;0.40;;
32106;SDS011;18622;51.998;10.440;2023-07-31T04:56:54;0.90;;;0.40;;
32106;SDS011;18622;51.998;10.440;2023-07-31T04:59:22;1.17;;;0.60;;
32106;SDS011;18622;51.998;10.440;2023-07-31T05:01:50;1.83;;;0.70;;
32106;SDS011;18622;51.998;10.440;2023-07-31T05:04:18;2.83;;;0.60;;
32106;SDS011;18622;51.998;10.440;2023-07-31T05:06:46;0.63;;;0.43;;
32106;SDS011;18622;51.998;10.440;2023-07-31T05:09:13;1.13;;;0.80;;
32106;SDS011;18622;51.998;10.440;2023-07-31T05:11:41;0.73;;;0.70;;
32106;SDS011;18622;51.998;10.440;2023-07-31T05:14:09;3.23;;;1.63;;
32106;SDS011;18622;51.998;10.440;2023-07-31T05:16:37;2.17;;;1.70;;
32106;SDS011;18622;51.998;10.440;2023-07-31T05:19:05;4.87;;;1.90;;
32106;SDS011;18622;51.998;10.440;2023-07-31T05:21:32;7.03;;;2.00;;
32106;SDS011;18622;51.998;10.440;2023-07-31T05:24:00;5.60;;;2.10;;
32106;SDS011;18622;51.998;10.440;2023-07-31T05:26:28;7.33;;;2.10;;
32106;SDS011;18622;51.998;10.440;2023-07-31T05:28:56;5.37;;;2.17;;
32106;SDS011;18622;51.998;10.440;2023-07-31T05:31:24;6.72;;;2.60;;
32106;SDS011;18622;51.998;10.440;2023-07-31T05:33:52;4.53;;;2.50;;
32106;SDS011;18622;51.998;10.440;2023-07-31T05:36:20;3.53;;;1.70;;
32106;SDS011;18622;51.998;10.440;2023-07-31T05:38:47;4.93;;;2.57;;
32106;SDS011;18622;51.998;10.440;2023-07-31T05:41:15;6.00;;;2.30;;
32106;SDS011;18622;51.998;10.440;2023-07-31T05:43:44;4.35;;;2.30;;
32106;SDS011;18622;51.998;10.440;2023-07-31T05:46:11;6.43;;;2.37;;
32106;SDS011;18622;51.998;10.440;2023-07-31T05:48:39;5.03;;;2.37;;
32106;SDS011;18622;51.998;10.440;2023-07-31T05:51:07;7.13;;;2.40;;
32106;SDS011;18622;51.998;10.440;2023-07-31T05:53:35;8.27;;;2.43;;
32106;SDS011;18622;51.998;10.440;2023-07-31T05:56:04;4.67;;;2.52;;
32106;SDS011;18622;51.998;10.440;2023-07-31T05:58:32;3.03;;;2.43;;
32106;SDS011;18622;51.998;10.440;2023-07-31T06:01:00;7.33;;;2.87;;
32106;SDS011;18622;51.998;10.440;2023-07-31T06:03:28;2.93;;;1.73;;
32106;SDS011;18622;51.998;10.440;2023-07-31T06:05:56;5.80;;;2.37;;
32106;SDS011;18622;51.998;10.440;2023-07-31T06:08:24;4.80;;;2.70;;
32106;SDS011;18622;51.998;10.440;2023-07-31T06:10:52;6.97;;;3.00;;
32106;SDS011;18622;51.998;10.440;2023-07-31T06:13:20;8.30;;;2.90;;
32106;SDS011;18622;51.998;10.440;2023-07-31T06:15:47;5.40;;;2.50;;
32106;SDS011;18622;51.998;10.440;2023-07-31T06:18:15;7.83;;;3.00;;
32106;SDS011;18622;51.998;10.440;2023-07-31T06:20:43;7.73;;;2.70;;
32106;SDS011;18622;51.998;10.440;2023-07-31T06:23:11;4.63;;;2.27;;
32106;SDS011;18622;51.998;10.440;2023-07-31T06:25:38;5.13;;;2.47;;
32106;SDS011;18622;51.998;10.440;2023-07-31T06:28:06;2.57;;;1.87;;
32106;SDS011;18622;51.998;10.440;2023-07-31T06:30:34;4.70;;;2.23;;
32106;SDS011;18622;51.998;10.440;2023-07-31T06:33:02;4.33;;;2.40;;
32106;SDS011;18622;51.998;10.440;2023-07-31T06:35:30;4.63;;;1.70;;
32106;SDS011;18622;51.998;10.440;2023-07-31T06:37:57;5.43;;;2.27;;
32106;SDS011;18622;51.998;10.440;2023-07-31T06:40:25;3.47;;;2.27;;
32106;SDS011;18622;51.998;10.440;2023-07-31T06:42:53;6.07;;;2.67;;
32106;SDS011;18622;51.998;10.440;2023-07-31T06:45:21;3.50;;;2.30;;
32106;SDS011;18622;51.998;10.440;2023-07-31T06:47:49;4.73;;;2.93;;
32106;SDS011;18622;51.998;10.440;2023-07-31T06:50:17;6.97;;;2.90;;
32106;SDS011;18622;51.998;10.440;2023-07-31T06:52:44;7.87;;;3.20;;
32106;SDS011;18622;51.998;10.440;2023-07-31T06:55:16;7.57;;;3.27;;
32106;SDS011;18622;51.998;10.440;2023-07-31T06:57:46;7.45;;;3.30;;
32106;SDS011;18622;51.998;10.440;2023-07-31T07:00:14;7.87;;;3.40;;
32106;SDS011;18622;51.998;10.440;2023-07-31T07:02:42;9.40;;;3.27;;
32106;SDS011;18622;51.998;10.440;2023-07-31T07:05:10;7.60;;;3.10;;
32106;SDS011;18622;51.998;10.440;2023-07-31T07:07:38;8.27;;;3.37;;
32106;SDS011;18622;51.998;10.440;2023-07-31T07:10:06;7.43;;;3.27;;
32106;SDS011;18622;51.998;10.440;2023-07-31T07:12:34;9.18;;;3.20;;
32106;SDS011;18622;51.998;10.440;2023-07-31T07:15:02;11.30;;;3.03;;
32106;SDS011;18622;51.998;10.440;2023-07-31T07:17:30;6.47;;;2.83;;
32106;SDS011;18622;51.998;10.440;2023-07-31T07:19:58;9.20;;;3.40;;
32106;SDS011;18622;51.998;10.440;2023-07-31T07:22:26;6.37;;;3.15;;
32106;SDS011;18622;51.998;10.440;2023-07-31T07:24:54;10.50;;;3.37;;
32106;SDS011;18622;51.998;10.440;2023-07-31T07:27:22;6.87;;;3.40;;
32106;SDS011;18622;51.998;10.440;2023-07-31T07:29:50;6.30;;;3.07;;
32106;SDS011;18622;51.998;10.440;2023-07-31T07:32:18;6.17;;;2.85;;
32106;SDS011;18622;51.998;10.440;2023-07-31T07:34:47;6.67;;;3.10;;
32106;SDS011;18622;51.998;10.440;2023-07-31T07:37:15;6.92;;;2.90;;
32106;SDS011;18622;51.998;10.440;2023-07-31T07:39:43;9.33;;;3.10;;
32106;SDS011;18622;51.998;10.440;2023-07-31T07:42:11;5.57;;;2.80;;
32106;SDS011;18622;51.998;10.440;2023-07-31T07:44:39;6.10;;;2.97;;
32106;SDS011;18622;51.998;10.440;2023-07-31T07:47:07;5.63;;;2.70;;
32106;SDS011;18622;51.998;10.440;2023-07-31T07:49:35;5.27;;;2.67;;
32106;SDS011;18622;51.998;10.440;2023-07-31T07:52:03;5.70;;;2.50;;
32106;SDS011;18622;51.998;10.440;2023-07-31T07:54:32;7.08;;;2.62;;
32106;SDS011;18622;51.998;10.440;2023-07-31T07:56:59;5.23;;;2.93;;
32106;SDS011;18622;51.998;10.440;2023-07-31T07:59:27;4.60;;;2.87;;
32106;SDS011;18622;51.998;10.440;2023-07-31T08:01:55;5.63;;;2.50;;
32106;SDS011;18622;51.998;10.440;2023-07-31T08:04:23;5.73;;;3.00;;
32106;SDS011;18622;51.998;10.440;2023-07-31T08:06:51;5.70;;;2.90;;
32106;SDS011;18622;51.998;10.440;2023-07-31T08:09:19;6.63;;;2.97;;
32106;SDS011;18622;51.998;10.440;2023-07-31T08:11:47;7.50;;;2.90;;
32106;SDS011;18622;51.998;10.440;2023-07-31T08:14:14;9.30;;;3.27;;
32106;SDS011;18622;51.998;10.440;2023-07-31T08:16:42;4.60;;;2.80;;
32106;SDS011;18622;51.998;10.440;2023-07-31T08:19:10;6.63;;;2.70;;
32106;SDS011;18622;51.998;10.440;2023-07-31T08:21:38;7.33;;;3.00;;
32106;SDS011;18622;51.998;10.440;2023-07-31T08:24:06;11.03;;;2.87;;
32106;SDS011;18622;51.998;10.440;2023-07-31T08:26:34;5.92;;;2.70;;
32106;SDS011;18622;51.998;10.440;2023-07-31T08:29:02;5.60;;;3.23;;
32106;SDS011;18622;51.998;10.440;2023-07-31T08:31:29;7.50;;;3.17;;
32106;SDS011;18622;51.998;10.440;2023-07-31T08:33:57;5.90;;;2.93;;
32106;SDS011;18622;51.998;10.440;2023-07-31T08:36:25;7.07;;;2.90;;
32106;SDS011;18622;51.998;10.440;2023-07-31T08:38:53;9.47;;;3.17;;
32106;SDS011;18622;51.998;10.440;2023-07-31T08:41:21;8.37;;;2.87;;
32106;SDS011;18622;51.998;10.440;2023-07-31T08:43:51;5.87;;;2.87;;
32106;SDS011;18622;51.998;10.440;2023-07-31T08:46:20;6.00;;;2.60;;
32106;SDS011;18622;51.998;10.440;2023-07-31T08:48:48;8.20;;;3.20;;
32106;SDS011;18622;51.998;10.440;2023-07-31T08:51:18;8.23;;;2.83;;
32106;SDS011;18622;51.998;10.440;2023-07-31T08:53:47;7.83;;;2.90;;
32106;SDS011;18622;51.998;10.440;2023-07-31T08:56:15;6.17;;;2.80;;
32106;SDS011;18622;51.998;10.440;2023-07-31T08:58:43;4.90;;;2.20;;
32106;SDS011;18622;51.998;10.440;2023-07-31T09:01:11;9.40;;;2.75;;
32106;SDS011;18622;51.998;10.440;2023-07-31T09:03:40;5.37;;;2.58;;
32106;SDS011;18622;51.998;10.440;2023-07-31T09:06:10;5.30;;;2.57;;
32106;SDS011;18622;51.998;10.440;2023-07-31T09:08:40;6.85;;;2.80;;
32106;SDS011;18622;51.998;10.440;2023-07-31T09:11:09;5.20;;;2.33;;
32106;SDS011;18622;51.998;10.440;2023-07-31T09:13:37;4.37;;;2.63;;
32106;SDS011;18622;51.998;10.440;2023-07-31T09:16:07;4.05;;;2.10;;
32106;SDS011;18622;51.998;10.440;2023-07-31T09:19:09;4.70;;;1.85;;
32106;SDS011;18622;51.998;10.440;2023-07-31T09:21:22;1.67;;;1.50;;
32106;SDS011;18622;51.998;10.440;2023-07-31T09:23:51;2.60;;;1.40;;
32106;SDS011;18622;51.998;10.440;2023-07-31T09:26:29;2.17;;;1.57;;
32106;SDS011;18622;51.998;10.440;2023-07-31T09:29:04;2.60;;;1.40;;
32106;SDS011;18622;51.998;10.440;2023-07-31T09:34:10;2.27;;;1.50;;
32106;SDS011;18622;51.998;10.440;2023-07-31T09:36:42;1.70;;;1.32;;
32106;SDS011;18622;51.998;10.440;2023-07-31T09:39:14;2.02;;;1.25;;
32106;SDS011;18622;51.998;10.440;2023-07-31T09:41:53;2.10;;;1.37;;
32106;SDS011;18622;51.998;10.440;2023-07-31T09:44:13;1.47;;;1.37;;
32106;SDS011;18622;51.998;10.440;2023-07-31T09:46:41;3.93;;;1.70;;
32106;SDS011;18622;51.998;10.440;2023-07-31T09:49:09;1.83;;;1.30;;
32106;SDS011;18622;51.998;10.440;2023-07-31T09:51:38;4.35;;;1.67;;
32106;SDS011;18622;51.998;10.440;2023-07-31T09:54:14;2.43;;;1.80;;
32106;SDS011;18622;51.998;10.440;2023-07-31T09:56:44;1.60;;;1.50;;
32106;SDS011;18622;51.998;10.440;2023-07-31T09:59:19;8.07;;;2.00;;
32106;SDS011;18622;51.998;10.440;2023-07-31T10:01:44;5.25;;;1.72;;
32106;SDS011;18622;51.998;10.440;2023-07-31T10:04:13;5.37;;;1.98;;
32106;SDS011;18622;51.998;10.440;2023-07-31T10:06:42;4.40;;;1.85;;
32106;SDS011;18622;51.998;10.440;2023-07-31T10:09:12;4.03;;;1.90;;
32106;SDS011;18622;51.998;10.440;2023-07-31T10:11:45;2.73;;;2.13;;
32106;SDS011;18622;51.998;10.440;2023-07-31T10:14:22;2.80;;;1.87;;
32106;SDS011;18622;51.998;10.440;2023-07-31T10:16:47;3.97;;;2.00;;
32106;SDS011;18622;51.998;10.440;2023-07-31T10:19:15;4.17;;;2.10;;
32106;SDS011;18622;51.998;10.440;2023-07-31T10:21:43;4.03;;;2.25;;
32106;SDS011;18622;51.998;10.440;2023-07-31T10:24:11;5.42;;;2.10;;
32106;SDS011;18622;51.998;10.440;2023-07-31T10:26:39;4.07;;;2.10;;
32106;SDS011;18622;51.998;10.440;2023-07-31T10:29:10;3.30;;;1.70;;
32106;SDS011;18622;51.998;10.440;2023-07-31T10:31:38;3.00;;;1.90;;
32106;SDS011;18622;51.998;10.440;2023-07-31T10:34:06;3.33;;;2.05;;
32106;SDS011;18622;51.998;10.440;2023-07-31T10:36:34;7.83;;;2.27;;
32106;SDS011;18622;51.998;10.440;2023-07-31T10:39:03;2.50;;;1.90;;
32106;SDS011;18622;51.998;10.440;2023-07-31T10:41:33;4.75;;;2.42;;
32106;SDS011;18622;51.998;10.440;2023-07-31T10:44:02;5.10;;;2.47;;
32106;SDS011;18622;51.998;10.440;2023-07-31T10:49:00;4.25;;;2.30;;
32106;SDS011;18622;51.998;10.440;2023-07-31T10:51:35;3.87;;;2.52;;
32106;SDS011;18622;51.998;10.440;2023-07-31T10:54:12;3.20;;;1.82;;
32106;SDS011;18622;51.998;10.440;2023-07-31T10:56:44;6.53;;;2.37;;
32106;SDS011;18622;51.998;10.440;2023-07-31T10:59:13;4.80;;;2.10;;
32106;SDS011;18622;51.998;10.440;2023-07-31T11:01:52;3.08;;;1.80;;
32106;SDS011;18622;51.998;10.440;2023-07-31T11:04:24;3.93;;;2.40;;
32106;SDS011;18622;51.998;10.440;2023-07-31T11:07:01;3.05;;;2.00;;
32106;SDS011;18622;51.998;10.440;2023-07-31T11:09:32;2.47;;;1.80;;
32106;SDS011;18622;51.998;10.440;2023-07-31T11:12:00;4.40;;;2.20;;
32106;SDS011;18622;51.998;10.440;2023-07-31T11:14:28;2.87;;;2.03;;
32106;SDS011;18622;51.998;10.440;2023-07-31T11:16:56;3.10;;;2.20;;
32106;SDS011;18622;51.998;10.440;2023-07-31T11:19:24;3.53;;;1.83;;
32106;SDS011;18622;51.998;10.440;2023-07-31T11:21:52;4.33;;;2.37;;
32106;SDS011;18622;51.998;10.440;2023-07-31T11:24:20;3.05;;;1.72;;
32106;SDS011;18622;51.998;10.440;2023-07-31T11:26:51;5.40;;;2.10;;
32106;SDS011;18622;51.998;10.440;2023-07-31T11:29:20;2.53;;;1.63;;
32106;SDS011;18622;51.998;10.440;2023-07-31T11:31:49;3.60;;;1.70;;
32106;SDS011;18622;51.998;10.440;2023-07-31T11:34:17;1.90;;;1.63;;
32106;SDS011;18622;51.998;10.440;2023-07-31T11:36:56;2.60;;;1.95;;
32106;SDS011;18622;51.998;10.440;2023-07-31T11:39:22;2.40;;;1.63;;
32106;SDS011;18622;51.998;10.440;2023-07-31T11:41:50;3.33;;;2.00;;
32106;SDS011;18622;51.998;10.440;2023-07-31T11:44:18;3.50;;;2.00;;
32106;SDS011;18622;51.998;10.440;2023-07-31T11:46:45;2.20;;;1.90;;
32106;SDS011;18622;51.998;10.440;2023-07-31T11:49:13;5.30;;;1.97;;
32106;SDS011;18622;51.998;10.440;2023-07-31T11:51:42;3.17;;;1.62;;
32106;SDS011;18622;51.998;10.440;2023-07-31T11:54:10;6.57;;;1.77;;
32106;SDS011;18622;51.998;10.440;2023-07-31T11:56:39;2.05;;;1.70;;
32106;SDS011;18622;51.998;10.440;2023-07-31T11:59:07;4.13;;;2.40;;
32106;SDS011;18622;51.998;10.440;2023-07-31T12:01:35;2.40;;;2.20;;
32106;SDS011;18622;51.998;10.440;2023-07-31T12:04:03;3.90;;;1.97;;
32106;SDS011;18622;51.998;10.440;2023-07-31T12:06:34;3.43;;;2.10;;
32106;SDS011;18622;51.998;10.440;2023-07-31T12:09:05;5.62;;;2.30;;
32106;SDS011;18622;51.998;10.440;2023-07-31T12:11:45;2.90;;;2.25;;
32106;SDS011;18622;51.998;10.440;2023-07-31T12:14:27;5.80;;;2.20;;
32106;SDS011;18622;51.998;10.440;2023-07-31T12:16:57;2.63;;;1.87;;
32106;SDS011;18622;51.998;10.440;2023-07-31T12:19:29;3.93;;;2.30;;
32106;SDS011;18622;51.998;10.440;2023-07-31T12:22:00;4.78;;;2.85;;
32106;SDS011;18622;51.998;10.440;2023-07-31T12:24:28;4.33;;;2.33;;
32106;SDS011;18622;51.998;10.440;2023-07-31T12:26:56;3.03;;;2.10;;
32106;SDS011;18622;51.998;10.440;2023-07-31T12:29:33;2.83;;;2.33;;
32106;SDS011;18622;51.998;10.440;2023-07-31T12:31:55;6.53;;;2.30;;
32106;SDS011;18622;51.998;10.440;2023-07-31T12:34:23;2.17;;;1.97;;
32106;SDS011;18622;51.998;10.440;2023-07-31T12:36:53;2.30;;;2.03;;
32106;SDS011;18622;51.998;10.440;2023-07-31T12:41:47;4.67;;;2.00;;
32106;SDS011;18622;51.998;10.440;2023-07-31T12:44:14;3.27;;;2.30;;
32106;SDS011;18622;51.998;10.440;2023-07-31T12:46:42;4.77;;;2.30;;
32106;SDS011;18622;51.998;10.440;2023-07-31T12:49:10;2.87;;;1.93;;
32106;SDS011;18622;51.998;10.440;2023-07-31T12:51:38;2.53;;;2.17;;
32106;SDS011;18622;51.998;10.440;2023-07-31T12:54:06;2.43;;;2.10;;
32106;SDS011;18622;51.998;10.440;2023-07-31T12:56:33;5.27;;;2.27;;
32106;SDS011;18622;51.998;10.440;2023-07-31T12:59:01;6.27;;;2.10;;
32106;SDS011;18622;51.998;10.440;2023-07-31T13:01:29;4.50;;;2.20;;
32106;SDS011;18622;51.998;10.440;2023-07-31T13:03:57;3.37;;;2.00;;
32106;SDS011;18622;51.998;10.440;2023-07-31T13:06:25;4.23;;;2.00;;
32106;SDS011;18622;51.998;10.440;2023-07-31T13:08:53;5.83;;;2.07;;
32106;SDS011;18622;51.998;10.440;2023-07-31T13:11:20;4.77;;;1.63;;
32106;SDS011;18622;51.998;10.440;2023-07-31T13:13:48;4.83;;;1.93;;
32106;SDS011;18622;51.998;10.440;2023-07-31T13:16:16;3.63;;;2.10;;
32106;SDS011;18622;51.998;10.440;2023-07-31T13:18:44;4.20;;;2.10;;
32106;SDS011;18622;51.998;10.440;2023-07-31T13:21:12;2.60;;;1.90;;
32106;SDS011;18622;51.998;10.440;2023-07-31T13:23:39;5.13;;;1.73;;
32106;SDS011;18622;51.998;10.440;2023-07-31T13:26:07;2.63;;;1.67;;
32106;SDS011;18622;51.998;10.440;2023-07-31T13:28:35;3.10;;;1.60;;
32106;SDS011;18622;51.998;10.440;2023-07-31T13:31:03;3.33;;;1.80;;
32106;SDS011;18622;51.998;10.440;2023-07-31T13:33:31;2.43;;;1.73;;
32106;SDS011;18622;51.998;10.440;2023-07-31T13:35:58;3.00;;;1.30;;
32106;SDS011;18622;51.998;10.440;2023-07-31T13:38:26;3.00;;;1.80;;
32106;SDS011;18622;51.998;10.440;2023-07-31T13:40:54;3.10;;;1.70;;
32106;SDS011;18622;51.998;10.440;2023-07-31T13:43:22;1.87;;;1.43;;
32106;SDS011;18622;51.998;10.440;2023-07-31T13:45:50;3.73;;;1.60;;
32106;SDS011;18622;51.998;10.440;2023-07-31T13:48:18;1.93;;;1.40;;
32106;SDS011;18622;51.998;10.440;2023-07-31T13:50:46;1.33;;;1.23;;
32106;SDS011;18622;51.998;10.440;2023-07-31T13:53:13;3.47;;;1.60;;
32106;SDS011;18622;51.998;10.440;2023-07-31T13:55:41;2.27;;;1.40;;
32106;SDS011;18622;51.998;10.440;2023-07-31T13:58:11;1.32;;;1.20;;
32106;SDS011;18622;51.998;10.440;2023-07-31T14:00:38;1.30;;;1.20;;
32106;SDS011;18622;51.998;10.440;2023-07-31T14:03:06;1.93;;;1.40;;
32106;SDS011;18622;51.998;10.440;2023-07-31T14:05:34;2.00;;;1.40;;
32106;SDS011;18622;51.998;10.440;2023-07-31T14:08:02;4.53;;;1.50;;
32106;SDS011;18622;51.998;10.440;2023-07-31T14:10:30;2.73;;;1.40;;
32106;SDS011;18622;51.998;10.440;2023-07-31T14:12:58;1.70;;;1.60;;
32106;SDS011;18622;51.998;10.440;2023-07-31T14:15:25;2.00;;;1.50;;
32106;SDS011;18622;51.998;10.440;2023-07-31T14:17:53;1.63;;;1.50;;
32106;SDS011;18622;51.998;10.440;2023-07-31T14:20:21;1.63;;;1.50;;
32106;SDS011;18622;51.998;10.440;2023-07-31T14:22:49;1.53;;;1.43;;
32106;SDS011;18622;51.998;10.440;2023-07-31T14:25:17;1.73;;;1.40;;
32106;SDS011;18622;51.998;10.440;2023-07-31T14:27:44;2.47;;;1.70;;
32106;SDS011;18622;51.998;10.440;2023-07-31T14:30:12;3.17;;;1.77;;
32106;SDS011;18622;51.998;10.440;2023-07-31T14:32:40;3.57;;;2.20;;
32106;SDS011;18622;51.998;10.440;2023-07-31T14:35:08;1.87;;;1.40;;
32106;SDS011;18622;51.998;10.440;2023-07-31T14:37:36;2.40;;;1.97;;
32106;SDS011;18622;51.998;10.440;2023-07-31T14:40:05;2.15;;;1.72;;
32106;SDS011;18622;51.998;10.440;2023-07-31T14:42:34;2.37;;;1.82;;
32106;SDS011;18622;51.998;10.440;2023-07-31T14:45:02;1.97;;;1.73;;
32106;SDS011;18622;51.998;10.440;2023-07-31T14:47:30;1.77;;;1.40;;
32106;SDS011;18622;51.998;10.440;2023-07-31T14:49:59;2.77;;;1.90;;
32106;SDS011;18622;51.998;10.440;2023-07-31T14:52:26;2.30;;;1.60;;
32106;SDS011;18622;51.998;10.440;2023-07-31T14:54:54;2.93;;;1.90;;
32106;SDS011;18622;51.998;10.440;2023-07-31T14:57:22;2.50;;;1.87;;
32106;SDS011;18622;51.998;10.440;2023-07-31T14:59:50;1.73;;;1.63;;
32106;SDS011;18622;51.998;10.440;2023-07-31T15:02:18;3.10;;;1.90;;
32106;SDS011;18622;51.998;10.440;2023-07-31T15:04:45;3.83;;;2.37;;
32106;SDS011;18622;51.998;10.440;2023-07-31T15:07:13;4.00;;;1.83;;
32106;SDS011;18622;51.998;10.440;2023-07-31T15:09:41;2.70;;;2.07;;
32106;SDS011;18622;51.998;10.440;2023-07-31T15:12:09;2.77;;;2.00;;
32106;SDS011;18622;51.998;10.440;2023-07-31T15:14:37;2.43;;;2.00;;
32106;SDS011;18622;51.998;10.440;2023-07-31T15:17:05;4.37;;;2.63;;
32106;SDS011;18622;51.998;10.440;2023-07-31T15:19:32;3.80;;;2.00;;
32106;SDS011;18622;51.998;10.440;2023-07-31T15:22:02;3.30;;;2.30;;
32106;SDS011;18622;51.998;10.440;2023-07-31T15:24:30;3.33;;;2.02;;
32106;SDS011;18622;51.998;10.440;2023-07-31T15:26:58;3.73;;;2.30;;
32106;SDS011;18622;51.998;10.440;2023-07-31T15:29:28;2.10;;;1.90;;
32106;SDS011;18622;51.998;10.440;2023-07-31T15:31:56;4.30;;;2.42;;
32106;SDS011;18622;51.998;10.440;2023-07-31T15:34:25;2.13;;;1.97;;
32106;SDS011;18622;51.998;10.440;2023-07-31T15:36:53;5.63;;;1.97;;
32106;SDS011;18622;51.998;10.440;2023-07-31T15:39:20;3.53;;;1.90;;
32106;SDS011;18622;51.998;10.440;2023-07-31T15:41:48;3.83;;;2.30;;
32106;SDS011;18622;51.998;10.440;2023-07-31T15:44:16;5.30;;;2.30;;
32106;SDS011;18622;51.998;10.440;2023-07-31T15:46:44;2.73;;;1.90;;
32106;SDS011;18622;51.998;10.440;2023-07-31T15:49:12;3.10;;;1.90;;
32106;SDS011;18622;51.998;10.440;2023-07-31T15:51:39;4.33;;;3.07;;
32106;SDS011;18622;51.998;10.440;2023-07-31T15:54:07;3.17;;;2.20;;
32106;SDS011;18622;51.998;10.440;2023-07-31T15:56:35;5.90;;;2.30;;
32106;SDS011;18622;51.998;10.440;2023-07-31T15:59:03;3.80;;;2.23;;
32106;SDS011;18622;51.998;10.440;2023-07-31T16:01:30;2.53;;;2.10;;
32106;SDS011;18622;51.998;10.440;2023-07-31T16:03:58;2.63;;;2.10;;
32106;SDS011;18622;51.998;10.440;2023-07-31T16:06:26;2.47;;;2.00;;
32106;SDS011;18622;51.998;10.440;2023-07-31T16:08:54;3.40;;;1.90;;
32106;SDS011;18622;51.998;10.440;2023-07-31T16:11:22;3.47;;;1.65;;
32106;SDS011;18622;51.998;10.440;2023-07-31T16:13:50;4.23;;;2.03;;
32106;SDS011;18622;51.998;10.440;2023-07-31T16:16:18;2.00;;;1.77;;
32106;SDS011;18622;51.998;10.440;2023-07-31T16:18:46;4.00;;;1.77;;
32106;SDS011;18622;51.998;10.440;2023-07-31T16:21:14;2.03;;;1.80;;
32106;SDS011;18622;51.998;10.440;2023-07-31T16:23:42;2.67;;;1.70;;
32106;SDS011;18622;51.998;10.440;2023-07-31T16:26:10;3.27;;;1.70;;
32106;SDS011;18622;51.998;10.440;2023-07-31T16:28:38;4.40;;;1.70;;
32106;SDS011;18622;51.998;10.440;2023-07-31T16:31:06;5.43;;;2.17;;
32106;SDS011;18622;51.998;10.440;2023-07-31T16:33:33;2.70;;;1.70;;
32106;SDS011;18622;51.998;10.440;2023-07-31T16:36:01;2.83;;;1.67;;
32106;SDS011;18622;51.998;10.440;2023-07-31T16:38:29;8.97;;;1.80;;
32106;SDS011;18622;51.998;10.440;2023-07-31T16:40:57;2.27;;;1.80;;
32106;SDS011;18622;51.998;10.440;2023-07-31T16:43:25;2.13;;;1.60;;
32106;SDS011;18622;51.998;10.440;2023-07-31T16:46:00;2.12;;;1.50;;
32106;SDS011;18622;51.998;10.440;2023-07-31T16:48:24;2.47;;;1.65;;
32106;SDS011;18622;51.998;10.440;2023-07-31T16:50:53;1.63;;;1.53;;
32106;SDS011;18622;51.998;10.440;2023-07-31T16:53:20;3.90;;;1.83;;
32106;SDS011;18622;51.998;10.440;2023-07-31T16:55:48;1.67;;;1.50;;
32106;SDS011;18622;51.998;10.440;2023-07-31T16:58:16;3.97;;;1.80;;
32106;SDS011;18622;51.998;10.440;2023-07-31T17:00:44;2.67;;;1.57;;
32106;SDS011;18622;51.998;10.440;2023-07-31T17:03:12;3.13;;;1.60;;
32106;SDS011;18622;51.998;10.440;2023-07-31T17:05:39;1.40;;;1.30;;
32106;SDS011;18622;51.998;10.440;2023-07-31T17:08:07;5.70;;;1.70;;
32106;SDS011;18622;51.998;10.440;2023-07-31T17:10:35;2.50;;;1.53;;
32106;SDS011;18622;51.998;10.440;2023-07-31T17:13:03;2.30;;;1.43;;
32106;SDS011;18622;51.998;10.440;2023-07-31T17:15:31;3.27;;;1.40;;
32106;SDS011;18622;51.998;10.440;2023-07-31T17:17:58;3.57;;;1.70;;
32106;SDS011;18622;51.998;10.440;2023-07-31T17:20:26;1.85;;;1.50;;
32106;SDS011;18622;51.998;10.440;2023-07-31T17:22:54;3.77;;;1.90;;
32106;SDS011;18622;51.998;10.440;2023-07-31T17:25:22;3.00;;;1.83;;
32106;SDS011;18622;51.998;10.440;2023-07-31T17:27:50;2.30;;;1.70;;
32106;SDS011;18622;51.998;10.440;2023-07-31T17:30:18;2.33;;;1.80;;
32106;SDS011;18622;51.998;10.440;2023-07-31T17:32:45;2.10;;;1.70;;
32106;SDS011;18622;51.998;10.440;2023-07-31T17:35:13;2.30;;;1.63;;
32106;SDS011;18622;51.998;10.440;2023-07-31T17:37:41;1.40;;;1.30;;
32106;SDS011;18622;51.998;10.440;2023-07-31T17:40:09;1.97;;;1.70;;
32106;SDS011;18622;51.998;10.440;2023-07-31T17:42:37;1.80;;;1.70;;
32106;SDS011;18622;51.998;10.440;2023-07-31T17:45:05;1.73;;;1.63;;
32106;SDS011;18622;51.998;10.440;2023-07-31T17:47:33;3.17;;;1.73;;
32106;SDS011;18622;51.998;10.440;2023-07-31T17:50:01;2.23;;;2.03;;
32106;SDS011;18622;51.998;10.440;2023-07-31T17:52:28;2.30;;;1.90;;
32106;SDS011;18622;51.998;10.440;2023-07-31T17:54:56;2.03;;;1.70;;
32106;SDS011;18622;51.998;10.440;2023-07-31T17:57:24;4.37;;;1.57;;
32106;SDS011;18622;51.998;10.440;2023-07-31T17:59:52;3.13;;;1.80;;
32106;SDS011;18622;51.998;10.440;2023-07-31T18:02:20;3.00;;;1.70;;
32106;SDS011;18622;51.998;10.440;2023-07-31T18:04:48;3.43;;;1.80;;
32106;SDS011;18622;51.998;10.440;2023-07-31T18:07:16;4.20;;;1.40;;
32106;SDS011;18622;51.998;10.440;2023-07-31T18:09:43;2.87;;;1.60;;
32106;SDS011;18622;51.998;10.440;2023-07-31T18:12:11;2.53;;;1.83;;
32106;SDS011;18622;51.998;10.440;2023-07-31T18:14:39;5.23;;;1.80;;
32106;SDS011;18622;51.998;10.440;2023-07-31T18:17:07;2.50;;;1.70;;
32106;SDS011;18622;51.998;10.440;2023-07-31T18:19:35;2.50;;;1.60;;